Terminal Aerodrome Forecast
Issued by NWS Hastings, NE

Home | Current Version | Previous Version | Text Only | Print | Product List | Glossary On
Versions: 1 2 3 4 5 6 7 8 9 10 11 12 13
000
FTUS45 KGID 272331
TAFEAR
TAF
KEAR 272331Z 2800/2824 16010KT P6SM FEW120
     FM280800 16009KT P6SM SCT030 OVC050
     FM281100 17012KT P6SM SCT015 BKN025
      AMD LTD TO CLD VIS AND WIND=

USA.gov is the U.S. government's official web portal to all federal, state and local government web resources and services.